createdAt,value
2018-08-09T00:00:35.484Z,98894.20
2018-08-09T00:03:06.438Z,98889.58
2018-08-09T00:05:37.012Z,98897.86
2018-08-09T00:08:07.637Z,98894.55
2018-08-09T00:10:38.253Z,98896.89
2018-08-09T00:13:09.068Z,98894.54
2018-08-09T00:15:39.572Z,98898.88
2018-08-09T00:18:10.293Z,98895.56
2018-08-09T00:20:40.856Z,98900.53
2018-08-09T00:23:11.479Z,98896.04
2018-08-09T00:25:42.441Z,98891.26
2018-08-09T00:28:12.995Z,98889.75
2018-08-09T00:30:43.509Z,98884.59
2018-08-09T00:33:14.298Z,98877.95
2018-08-09T00:35:44.988Z,98882.59
2018-08-09T00:38:15.581Z,98879.10
2018-08-09T00:40:46.060Z,98877.95
2018-08-09T00:43:16.474Z,98877.95
2018-08-09T00:45:47.481Z,98887.58
2018-08-09T00:48:18.778Z,98897.34
2018-08-09T00:50:49.469Z,98890.16
2018-08-09T00:53:20.958Z,98893.81
2018-08-09T00:55:51.635Z,98889.34
2018-08-09T00:58:22.110Z,98888.16
2018-08-09T01:00:52.989Z,98884.84
2018-08-09T01:03:23.669Z,98881.87
2018-08-09T01:05:54.331Z,98879.36
2018-08-09T01:08:24.948Z,98880.53
2018-08-09T01:10:55.344Z,98876.88
2018-08-09T01:13:25.727Z,98875.56
2018-08-09T01:15:56.058Z,98874.77
2018-08-09T01:18:26.482Z,98875.42
2018-08-09T01:20:57.159Z,98873.26
2018-08-09T01:23:27.819Z,98876.70
2018-08-09T01:25:58.535Z,98873.17
2018-08-09T01:28:28.996Z,98875.80
2018-08-09T01:30:59.540Z,98872.00
2018-08-09T01:33:30.032Z,98878.13
2018-08-09T01:36:00.652Z,98871.33
2018-08-09T01:38:31.411Z,98874.47
2018-08-09T01:41:02.211Z,98887.06
2018-08-09T01:43:49.681Z,98886.56
2018-08-09T01:46:20.298Z,98883.41
2018-08-09T01:48:50.869Z,98881.75
2018-08-09T01:51:22.135Z,98874.81
2018-08-09T01:53:53.717Z,98876.33
2018-08-09T01:56:24.337Z,98875.34
2018-08-09T01:58:55.573Z,98886.42
2018-08-09T02:01:26.247Z,98883.63
2018-08-09T02:03:56.782Z,98893.38
2018-08-09T02:06:27.379Z,98893.85
2018-08-09T02:09:02.018Z,98896.02
2018-08-09T02:11:32.434Z,98891.00
2018-08-09T02:14:03.504Z,98885.39
2018-08-09T02:16:34.009Z,98888.02
2018-08-09T02:19:04.685Z,98892.30
2018-08-09T02:21:35.155Z,98890.30
2018-08-09T02:24:05.660Z,98886.33
2018-08-09T02:26:36.383Z,98883.69
2018-08-09T02:29:08.501Z,98884.64
2018-08-09T02:31:39.047Z,98893.91
2018-08-09T02:34:10.022Z,98899.17
2018-08-09T02:36:40.621Z,98891.84
2018-08-09T02:39:11.921Z,98892.44
2018-08-09T02:41:42.417Z,98886.31
2018-08-09T02:44:12.982Z,98895.09
2018-08-09T02:46:43.881Z,98891.47
2018-08-09T02:49:14.537Z,98889.61
2018-08-09T02:51:45.152Z,98878.52
2018-08-09T02:54:15.913Z,98875.03
2018-08-09T02:56:46.404Z,98877.19
2018-08-09T02:59:17.074Z,98879.37
2018-08-09T03:01:47.499Z,98877.58
2018-08-09T03:04:18.022Z,98876.26
2018-08-09T03:06:48.468Z,98886.89
2018-08-09T03:09:19.177Z,98880.59
2018-08-09T03:11:49.816Z,98877.52
2018-08-09T03:14:20.393Z,98884.29
2018-08-09T03:16:50.871Z,98889.03
2018-08-09T03:19:21.251Z,98889.86
2018-08-09T03:21:51.799Z,98883.32
2018-08-09T03:24:22.290Z,98885.92
2018-08-09T03:26:53.835Z,98891.30
2018-08-09T03:29:24.513Z,98898.89
2018-08-09T03:31:55.036Z,98898.52
2018-08-09T03:34:25.565Z,98898.19
2018-08-09T03:36:56.493Z,98896.87
2018-08-09T03:39:26.954Z,98896.52
2018-08-09T03:41:57.857Z,98903.78
2018-08-09T03:44:28.446Z,98903.59
2018-08-09T03:46:58.870Z,98905.72
2018-08-09T03:49:29.381Z,98904.88
2018-08-09T03:51:59.879Z,98904.69
2018-08-09T03:54:30.380Z,98907.50
2018-08-09T03:57:00.861Z,98908.66
2018-08-09T03:59:31.372Z,98913.66
2018-08-09T04:02:01.823Z,98916.98
2018-08-09T04:04:32.548Z,98916.81
2018-08-09T04:07:02.966Z,98923.23
2018-08-09T04:09:33.724Z,98926.21
2018-08-09T04:12:04.203Z,98921.56
2018-08-09T04:14:35.109Z,98921.89
2018-08-09T04:17:23.118Z,98922.11
2018-08-09T04:19:54.414Z,98918.50
2018-08-09T04:22:25.435Z,98917.69
2018-08-09T04:24:55.959Z,98910.23
2018-08-09T04:27:26.560Z,98916.23
2018-08-09T04:29:57.165Z,98914.93
2018-08-09T04:32:27.712Z,98916.15
2018-08-09T04:34:58.160Z,98913.84
2018-08-09T04:37:28.795Z,98921.81
2018-08-09T04:39:59.233Z,98919.19
2018-08-09T04:42:29.994Z,98927.16
2018-08-09T04:45:00.832Z,98923.83
2018-08-09T04:47:31.722Z,98925.46
2018-08-09T04:50:02.268Z,98929.62
2018-08-09T04:52:32.780Z,98933.16
2018-08-09T04:55:03.786Z,98935.17
2018-08-09T04:57:34.318Z,98929.58
2018-08-09T05:00:05.593Z,98935.25
2018-08-09T05:02:36.248Z,98939.08
2018-08-09T05:05:07.015Z,98937.44
2018-08-09T05:07:37.718Z,98943.87
2018-08-09T05:10:10.395Z,98939.04
2018-08-09T05:12:42.494Z,98952.48
2018-08-09T05:15:13.765Z,98945.23
2018-08-09T05:17:44.394Z,98945.93
2018-08-09T05:20:14.955Z,98950.98
2018-08-09T05:22:45.524Z,98946.88
2018-08-09T05:25:16.155Z,98950.09
2018-08-09T05:27:46.642Z,98950.33
2018-08-09T05:30:18.144Z,98950.56
2018-08-09T05:32:48.934Z,98954.56
2018-08-09T05:35:19.363Z,98954.39
2018-08-09T05:37:50.080Z,98952.59
2018-08-09T05:40:21.213Z,98965.55
2018-08-09T05:42:53.359Z,98967.55
2018-08-09T05:45:24.631Z,98975.21
2018-08-09T05:47:55.225Z,98974.73
2018-08-09T05:50:25.719Z,98976.03
2018-08-09T05:52:56.681Z,98981.30
2018-08-09T05:55:27.279Z,98979.89
2018-08-09T05:58:01.003Z,98980.61
2018-08-09T06:00:32.165Z,98976.70
2018-08-09T06:03:03.008Z,98980.94
2018-08-09T06:05:33.818Z,98982.38
2018-08-09T06:08:04.678Z,98976.12
2018-08-09T06:10:36.995Z,98980.26
2018-08-09T06:13:08.260Z,98977.03
2018-08-09T06:15:40.558Z,98984.02
2018-08-09T06:18:12.185Z,98984.68
2018-08-09T06:20:42.866Z,98981.55
2018-08-09T06:23:13.594Z,98987.19
2018-08-09T06:25:44.452Z,98978.53
2018-08-09T06:28:15.491Z,98977.38
2018-08-09T06:30:46.443Z,98980.75
2018-08-09T06:33:17.757Z,98979.94
2018-08-09T06:35:50.054Z,98983.80
2018-08-09T06:38:21.407Z,98986.56
2018-08-09T06:40:52.234Z,98988.80
2018-08-09T06:43:23.838Z,98983.55
2018-08-09T06:45:54.921Z,98982.63
2018-08-09T06:48:27.101Z,98983.30
2018-08-09T06:50:58.334Z,98981.57
2018-08-09T06:53:31.119Z,98982.82
2018-08-09T06:56:03.421Z,98982.84
2018-08-09T06:58:34.292Z,98980.34
2018-08-09T07:01:05.079Z,98983.53
2018-08-09T07:03:35.794Z,98968.84
2018-08-09T07:06:06.659Z,98976.30
2018-08-09T07:08:37.995Z,98970.90
2018-08-09T07:11:13.562Z,98980.89
2018-08-09T07:13:45.534Z,98978.36
2018-08-09T07:16:17.797Z,98973.33
2018-08-09T07:18:48.875Z,98975.13
2018-08-09T07:21:19.645Z,98971.39
2018-08-09T07:23:51.506Z,98974.41
2018-08-09T07:26:23.847Z,98972.33
2018-08-09T07:28:54.539Z,98974.50
2018-08-09T07:31:25.867Z,98972.03
2018-08-09T07:33:56.707Z,98976.84
2018-08-09T07:36:27.373Z,98974.02
2018-08-09T07:38:57.938Z,98969.24
2018-08-09T07:41:29.394Z,98970.48
2018-08-09T07:44:01.016Z,98971.72
2018-08-09T07:46:32.657Z,98963.23
2018-08-09T07:49:03.650Z,98967.85
2018-08-09T07:51:35.663Z,98970.27
2018-08-09T07:54:06.938Z,98974.48
2018-08-09T07:56:38.228Z,98969.00
2018-08-09T07:59:09.129Z,98972.25
2018-08-09T08:01:41.321Z,98973.16
2018-08-09T08:04:12.238Z,98981.81
2018-08-09T08:06:43.986Z,98979.98
2018-08-09T08:09:15.071Z,98977.48
2018-08-09T08:11:52.872Z,98981.69
2018-08-09T08:14:25.187Z,98979.95
2018-08-09T08:16:56.362Z,98974.50
2018-08-09T08:19:28.196Z,98968.80
2018-08-09T08:21:58.738Z,98967.20
2018-08-09T08:24:37.745Z,98967.62
2018-08-09T08:27:09.818Z,98969.03
2018-08-09T08:29:41.387Z,98969.42
2018-08-09T08:32:13.724Z,98974.17
2018-08-09T08:34:44.656Z,98975.32
2018-08-09T08:37:15.835Z,98972.28
2018-08-09T08:39:46.581Z,98973.41
2018-08-09T08:42:17.164Z,98972.28
2018-08-09T08:44:48.217Z,98973.06
2018-08-09T08:47:20.554Z,98980.17
2018-08-09T08:49:51.582Z,98975.84
2018-08-09T08:52:22.700Z,98977.19
2018-08-09T08:54:53.301Z,98969.70
2018-08-09T08:57:24.272Z,98972.09
2018-08-09T08:59:55.468Z,98978.23
2018-08-09T09:02:26.249Z,98973.99
2018-08-09T09:04:58.458Z,98977.61
2018-08-09T09:07:29.572Z,98977.16
2018-08-09T09:10:01.411Z,98977.80
2018-08-09T09:12:33.009Z,98974.34
2018-08-09T09:15:04.655Z,98979.07
2018-08-09T09:17:35.337Z,98981.17
2018-08-09T09:20:10.281Z,98974.05
2018-08-09T09:22:41.712Z,98974.94
2018-08-09T09:25:13.779Z,98976.95
2018-08-09T09:27:44.558Z,98976.02
2018-08-09T09:30:16.714Z,98977.55
2018-08-09T09:32:47.735Z,98976.22
2018-08-09T09:35:18.643Z,98973.72
2018-08-09T09:37:50.989Z,98970.17
2018-08-09T09:40:21.809Z,98978.14
2018-08-09T09:42:52.409Z,98975.89
2018-08-09T09:45:23.118Z,98978.36
2018-08-09T09:47:54.123Z,98977.99
2018-08-09T09:50:25.044Z,98975.47
2018-08-09T09:52:55.916Z,98972.24
2018-08-09T09:55:27.096Z,98972.12
2018-08-09T09:57:58.271Z,98968.02
2018-08-09T10:00:30.043Z,98965.62
2018-08-09T10:03:01.490Z,98968.86
2018-08-09T10:05:32.661Z,98962.89
2018-08-09T10:08:03.185Z,98956.25
2018-08-09T10:10:34.030Z,98957.90
2018-08-09T10:13:04.814Z,98964.68
2018-08-09T10:15:36.251Z,98967.06
2018-08-09T10:18:07.380Z,98964.23
2018-08-09T10:20:37.958Z,98960.77
2018-08-09T10:23:08.726Z,98960.98
2018-08-09T10:25:39.391Z,98961.16
2018-08-09T10:28:10.143Z,98965.03
2018-08-09T10:30:41.445Z,98959.92
2018-08-09T10:33:12.968Z,98960.28
2018-08-09T10:35:44.655Z,98949.51
2018-08-09T10:38:15.430Z,98952.83
2018-08-09T10:40:46.497Z,98955.12
2018-08-09T10:43:17.453Z,98950.63
2018-08-09T10:45:48.477Z,98953.98
2018-08-09T10:48:19.665Z,98951.27
2018-08-09T10:50:50.536Z,98951.99
2018-08-09T10:53:22.007Z,98946.72
2018-08-09T10:55:52.637Z,98941.08
2018-08-09T10:58:23.346Z,98947.38
2018-08-09T11:00:53.925Z,98946.16
2018-08-09T11:03:24.516Z,98939.10
2018-08-09T11:05:54.990Z,98943.39
2018-08-09T11:08:25.696Z,98937.55
2018-08-09T11:10:57.273Z,98933.56
2018-08-09T11:13:28.915Z,98932.47
2018-08-09T11:15:59.562Z,98924.31
2018-08-09T11:18:30.385Z,98925.93
2018-08-09T11:21:02.118Z,98926.42
2018-08-09T11:23:33.809Z,98922.50
2018-08-09T11:26:04.367Z,98924.47
2018-08-09T11:28:35.352Z,98920.05
2018-08-09T11:31:08.271Z,98912.20
2018-08-09T11:33:39.066Z,98920.41
2018-08-09T11:36:10.362Z,98920.09
2018-08-09T11:38:41.140Z,98924.09
2018-08-09T11:41:12.627Z,98911.87
2018-08-09T11:43:43.236Z,98913.62
2018-08-09T11:46:14.209Z,98911.20
2018-08-09T11:48:46.482Z,98908.56
2018-08-09T11:51:17.175Z,98905.81
2018-08-09T11:53:48.333Z,98902.34
2018-08-09T11:56:20.735Z,98897.25
2018-08-09T11:58:51.465Z,98888.83
2018-08-09T12:01:23.144Z,98890.01
2018-08-09T12:03:54.475Z,98893.44
2018-08-09T12:06:27.898Z,98881.41
2018-08-09T12:09:00.101Z,98886.86
2018-08-09T12:11:32.642Z,98875.39
2018-08-09T12:14:03.646Z,98877.12
2018-08-09T12:16:34.638Z,98876.77
2018-08-09T12:19:05.968Z,98867.42
2018-08-09T12:21:38.160Z,98868.84
2018-08-09T12:24:09.545Z,98870.31
2018-08-09T12:26:40.439Z,98878.47
2018-08-09T12:29:11.339Z,98868.45
2018-08-09T12:31:42.409Z,98866.24
2018-08-09T12:34:14.541Z,98870.83
2018-08-09T12:36:46.295Z,98867.89
2018-08-09T12:39:18.779Z,98866.70
2018-08-09T12:41:50.112Z,98869.34
2018-08-09T12:44:21.333Z,98860.58
2018-08-09T12:46:52.245Z,98858.72
2018-08-09T12:49:23.212Z,98862.80
2018-08-09T12:51:53.937Z,98863.59
2018-08-09T12:54:26.058Z,98852.75
2018-08-09T12:56:58.190Z,98847.55
2018-08-09T12:59:30.360Z,98858.74
2018-08-09T13:02:01.654Z,98847.27
2018-08-09T13:04:33.509Z,98850.67
2018-08-09T13:07:04.854Z,98854.94
2018-08-09T13:09:35.814Z,98853.16
2018-08-09T13:12:06.994Z,98857.92
2018-08-09T13:14:39.404Z,98853.04
2018-08-09T13:17:10.441Z,98853.97
2018-08-09T13:19:41.549Z,98859.28
2018-08-09T13:22:12.541Z,98852.16
2018-08-09T13:24:43.355Z,98843.77
2018-08-09T13:27:15.048Z,98843.55
2018-08-09T13:29:46.477Z,98842.47
2018-08-09T13:32:19.745Z,98837.30
2018-08-09T13:34:50.777Z,98835.71
2018-08-09T13:37:22.055Z,98836.11
2018-08-09T13:39:56.105Z,98839.39
2018-08-09T13:42:27.245Z,98836.34
2018-08-09T13:45:02.448Z,98837.08
2018-08-09T13:47:35.926Z,98836.80
2018-08-09T13:50:10.679Z,98832.13
2018-08-09T13:52:42.845Z,98828.30
2018-08-09T13:55:16.950Z,98831.44
2018-08-09T13:57:48.312Z,98838.38
2018-08-09T14:00:22.489Z,98835.30
2018-08-09T14:02:53.880Z,98826.58
2018-08-09T14:05:26.672Z,98822.74
2018-08-09T14:07:58.655Z,98819.82
2018-08-09T14:10:30.867Z,98823.75
2018-08-09T14:13:07.765Z,98815.28
2018-08-09T14:15:39.596Z,98806.64
2018-08-09T14:18:10.410Z,98801.20
2018-08-09T14:20:43.275Z,98797.18
2018-08-09T14:23:15.659Z,98801.34
2018-08-09T14:25:51.830Z,98796.42
2018-08-09T14:28:24.891Z,98782.12
2018-08-09T14:31:01.581Z,98780.03
2018-08-09T14:33:34.721Z,98771.19
2018-08-09T14:36:11.703Z,98777.64
2018-08-09T14:38:47.457Z,98785.77
2018-08-09T14:41:18.689Z,98776.91
2018-08-09T14:43:52.160Z,98777.24
2018-08-09T14:46:23.997Z,98782.11
2018-08-09T14:49:05.521Z,98776.69
2018-08-09T14:51:37.264Z,98765.63
2018-08-09T14:54:08.550Z,98765.27
2018-08-09T14:56:40.384Z,98768.65
2018-08-09T14:59:11.388Z,98768.63
2018-08-09T15:01:42.421Z,98774.77
2018-08-09T15:04:14.178Z,98776.47
2018-08-09T15:06:46.044Z,98777.55
2018-08-09T15:09:16.818Z,98779.66
2018-08-09T15:11:47.682Z,98784.03
2018-08-09T15:14:19.330Z,98789.34
2018-08-09T15:16:50.287Z,98784.95
2018-08-09T15:19:20.935Z,98796.39
2018-08-09T15:21:52.203Z,98808.06
2018-08-09T15:24:24.816Z,98797.31
2018-08-09T15:26:58.237Z,98798.70
2018-08-09T15:29:29.336Z,98807.70
2018-08-09T15:32:00.457Z,98812.33
2018-08-09T15:34:31.703Z,98797.66
2018-08-09T15:37:05.768Z,98797.66
2018-08-09T15:39:37.926Z,98796.41
2018-08-09T15:42:09.205Z,98795.00
2018-08-09T15:44:40.039Z,98792.27
2018-08-09T15:47:11.328Z,98796.41
2018-08-09T15:49:42.544Z,98793.62
2018-08-09T15:52:13.376Z,98795.34
2018-08-09T15:54:44.551Z,98794.38
2018-08-09T15:57:16.254Z,98794.22
2018-08-09T15:59:47.938Z,98801.48
2018-08-09T16:02:21.011Z,98795.02
2018-08-09T16:04:52.287Z,98786.72
2018-08-09T16:07:23.963Z,98781.89
2018-08-09T16:09:54.971Z,98776.12
2018-08-09T16:12:26.083Z,98779.92
2018-08-09T16:14:57.887Z,98775.81
2018-08-09T16:17:29.044Z,98782.97
2018-08-09T16:20:00.694Z,98778.34
2018-08-09T16:22:31.555Z,98771.91
2018-08-09T16:25:02.310Z,98773.19
2018-08-09T16:27:33.217Z,98764.97
2018-08-09T16:30:04.297Z,98765.78
2018-08-09T16:32:36.752Z,98763.06
2018-08-09T16:35:09.010Z,98765.77
2018-08-09T16:37:40.551Z,98761.90
2018-08-09T16:40:17.213Z,98768.13
2018-08-09T16:42:48.242Z,98769.98
2018-08-09T16:45:20.840Z,98768.95
2018-08-09T16:47:54.303Z,98775.84
2018-08-09T16:50:26.147Z,98774.05
2018-08-09T16:52:58.109Z,98785.92
2018-08-09T16:55:29.847Z,98790.50
2018-08-09T16:58:00.437Z,98793.97
2018-08-09T17:00:31.757Z,98793.12
2018-08-09T17:03:04.475Z,98796.22
2018-08-09T17:05:38.607Z,98811.17
2018-08-09T17:08:10.800Z,98812.52
2018-08-09T17:10:42.156Z,98825.00
2018-08-09T17:13:13.195Z,98831.27
2018-08-09T17:15:44.018Z,98830.88
2018-08-09T17:18:15.231Z,98830.95
2018-08-09T17:20:49.334Z,98834.43
2018-08-09T17:23:20.210Z,98840.13
2018-08-09T17:25:51.137Z,98840.34
2018-08-09T17:28:21.922Z,98842.92
2018-08-09T17:30:52.777Z,98845.30
2018-08-09T17:33:24.735Z,98841.27
2018-08-09T17:35:55.974Z,98844.67
2018-08-09T17:38:28.465Z,98847.87
2018-08-09T17:40:59.615Z,98845.41
2018-08-09T17:43:31.077Z,98845.78
2018-08-09T17:46:02.013Z,98846.23
2018-08-09T17:48:33.667Z,98842.86
2018-08-09T17:51:05.504Z,98850.50
2018-08-09T17:53:37.373Z,98849.74
2018-08-09T17:56:08.980Z,98846.28
2018-08-09T17:58:40.764Z,98849.33
2018-08-09T18:01:11.683Z,98845.91
2018-08-09T18:03:42.749Z,98851.92
2018-08-09T18:06:13.907Z,98858.84
2018-08-09T18:08:44.800Z,98860.73
2018-08-09T18:11:16.520Z,98866.65
2018-08-09T18:13:49.080Z,98869.27
2018-08-09T18:16:20.338Z,98868.38
2018-08-09T18:18:51.457Z,98864.70
2018-08-09T18:21:22.937Z,98867.98
2018-08-09T18:23:53.708Z,98863.13
2018-08-09T18:26:24.711Z,98864.28
2018-08-09T18:28:56.457Z,98868.93
2018-08-09T18:31:27.887Z,98878.99
2018-08-09T18:33:58.663Z,98877.57
2018-08-09T18:36:29.968Z,98882.97
2018-08-09T18:39:01.154Z,98882.37
2018-08-09T18:41:32.063Z,98894.11
2018-08-09T18:44:03.220Z,98902.87
2018-08-09T18:46:34.987Z,98904.20
2018-08-09T18:49:07.622Z,98915.11
2018-08-09T18:51:40.286Z,98915.71
2018-08-09T18:54:13.200Z,98913.22
2018-08-09T18:56:48.382Z,98917.63
2018-08-09T18:59:20.360Z,98920.91
2018-08-09T19:01:52.114Z,98918.27
2018-08-09T19:04:23.843Z,98920.51
2018-08-09T19:06:55.925Z,98922.92
2018-08-09T19:09:27.515Z,98926.20
2018-08-09T19:12:02.024Z,98927.20
2018-08-09T19:14:34.390Z,98938.41
2018-08-09T19:17:06.340Z,98945.61
2018-08-09T19:19:38.124Z,98946.05
2018-08-09T19:22:10.170Z,98946.02
2018-08-09T19:24:42.683Z,98953.38
2018-08-09T19:27:15.980Z,98955.83
2018-08-09T19:29:48.880Z,98957.01
2018-08-09T19:32:20.890Z,98961.44
2018-08-09T19:34:53.056Z,98960.44
2018-08-09T19:37:25.156Z,98959.58
2018-08-09T19:39:57.573Z,98963.20
2018-08-09T19:42:29.774Z,98969.73
2018-08-09T19:45:01.648Z,98964.98
2018-08-09T19:48:22.033Z,98968.88
2018-08-09T19:50:55.473Z,98964.99
2018-08-09T19:53:27.762Z,98966.22
2018-08-09T19:55:59.990Z,98975.39
2018-08-09T19:58:32.401Z,98975.88
2018-08-09T20:01:05.914Z,98974.19
2018-08-09T20:03:38.891Z,98980.16
2018-08-09T20:06:11.034Z,98980.79
2018-08-09T20:08:43.938Z,98980.08
2018-08-09T20:11:17.846Z,98977.58
2018-08-09T20:13:50.150Z,98977.78
2018-08-09T20:16:22.123Z,98981.12
2018-08-09T20:18:54.085Z,98986.89
2018-08-09T20:21:26.231Z,98988.44
2018-08-09T20:23:58.006Z,98998.08
2018-08-09T20:26:30.378Z,99004.23
2018-08-09T20:29:03.589Z,99007.42
2018-08-09T20:31:35.737Z,99013.61
2018-08-09T20:34:08.041Z,99019.47
2018-08-09T20:36:39.930Z,99015.66
2018-08-09T20:39:14.196Z,99012.91
2018-08-09T20:41:45.827Z,99017.69
2018-08-09T20:44:16.868Z,99016.34
2018-08-09T20:46:48.157Z,99016.34
2018-08-09T20:49:19.551Z,99020.53
2018-08-09T20:51:52.496Z,99027.34
2018-08-09T20:54:23.571Z,99030.34
2018-08-09T20:56:54.971Z,99033.95
2018-08-09T20:59:26.219Z,99036.00
2018-08-09T21:01:58.201Z,99045.36
2018-08-09T21:04:28.911Z,99051.42
2018-08-09T21:06:59.515Z,99047.69
2018-08-09T21:09:30.366Z,99048.40
2018-08-09T21:12:00.947Z,99049.69
2018-08-09T21:14:31.970Z,99052.88
2018-08-09T21:17:02.815Z,99054.27
2018-08-09T21:19:36.175Z,99068.88
2018-08-09T21:22:08.647Z,99063.14
2018-08-09T21:24:39.740Z,99063.27
2018-08-09T21:27:10.435Z,99063.27
2018-08-09T21:29:43.042Z,99069.25
2018-08-09T21:32:13.896Z,99070.80
2018-08-09T21:34:45.001Z,99075.10
2018-08-09T21:37:18.030Z,99079.18
2018-08-09T21:39:49.839Z,99078.88
2018-08-09T21:42:20.833Z,99081.85
2018-08-09T21:44:52.416Z,99074.80
2018-08-09T21:47:24.277Z,99080.64
2018-08-09T21:49:56.071Z,99069.95
2018-08-09T21:52:28.768Z,99077.09
2018-08-09T21:55:00.688Z,99082.50
2018-08-09T21:57:32.621Z,99091.02
2018-08-09T22:00:04.850Z,99106.27
2018-08-09T22:02:39.536Z,99103.48
2018-08-09T22:05:19.339Z,99106.61
2018-08-09T22:07:57.149Z,99108.50
2018-08-09T22:10:33.784Z,99105.41
2018-08-09T22:13:13.279Z,99114.41
2018-08-09T22:15:49.354Z,99117.73
2018-08-09T22:18:27.602Z,99115.56
2018-08-09T22:21:04.762Z,99114.13
2018-08-09T22:23:38.793Z,99109.53
2018-08-09T22:26:12.102Z,99105.98
2018-08-09T22:28:45.043Z,99113.23
2018-08-09T22:31:17.164Z,99113.37
2018-08-09T22:33:49.830Z,99112.97
2018-08-09T22:36:21.775Z,99117.55
2018-08-09T22:38:54.804Z,99118.41
2018-08-09T22:41:29.089Z,99118.07
2018-08-09T22:44:00.780Z,99125.50
2018-08-09T22:46:32.195Z,99126.27
2018-08-09T22:49:05.272Z,99126.95
2018-08-09T22:51:38.292Z,99118.95
2018-08-09T22:54:10.213Z,99129.27
2018-08-09T22:56:42.809Z,99123.05
2018-08-09T22:59:17.254Z,99123.16
2018-08-09T23:01:49.123Z,99118.22
2018-08-09T23:04:20.650Z,99117.77
2018-08-09T23:06:52.961Z,99118.98
2018-08-09T23:09:27.371Z,99129.69
2018-08-09T23:12:00.038Z,99127.41
2018-08-09T23:14:33.191Z,99116.86
2018-08-09T23:17:04.071Z,99116.92
2018-08-09T23:19:36.758Z,99111.32
2018-08-09T23:22:08.121Z,99114.67
2018-08-09T23:24:39.733Z,99106.30
2018-08-09T23:27:12.088Z,99110.30
2018-08-09T23:29:44.725Z,99110.27
2018-08-09T23:32:16.673Z,99104.78
2018-08-09T23:34:48.037Z,99112.47
2018-08-09T23:37:20.000Z,99100.70
2018-08-09T23:39:52.617Z,99108.08
2018-08-09T23:42:24.285Z,99100.11
2018-08-09T23:44:55.595Z,99101.94
2018-08-09T23:47:28.632Z,99096.14
2018-08-09T23:50:00.329Z,99098.16
2018-08-09T23:52:32.881Z,99095.52
2018-08-09T23:55:04.491Z,99090.54
2018-08-09T23:57:37.036Z,99089.20
